Montegut, LA (70377)

12:37 AM CDT on July 04, 2015 (GMT -0500)
ASHLAND NORTH | | Change Station
CLOSE
Current Station
Personal Weather Station
Location: Houma, LA
Elevation: 3 ft
Nearby Weather Stations

Elev 3 ft 29.54 °N, 90.67 °W | Updated 8 seconds ago

Clear
Clear
80.2 °F
Feels Like 87 °F
N
3.1
Wind Variable Wind from SW
Gusts 3.1 mph

Today
High -- | Low -- °F
--% Chance of Precip.
Yesterday
High -- | Low -- °F
Precip. -- in
6:07 AM 8:05 PM
Waning Gibbous, 94% visible
Pressure 30.04 in
Visibility 7.0 miles
Clouds Clear
Heat Index 87 °F
Dew Point 78 °F
Humidity 94%
Rainfall 0.00 in
Snow Depth Not available.
UV 0 out of 12
Pollen 3.70 out of 12
Air Quality Not available.
Flu Activity Not available.
METAR KHUM 040515Z AUTO 18003KT 7SM CLR 25/24 A3004 RMK AO2 T02520240

More Conditions Fewer Conditions

Pressure 30.04 in
Visibility 7.0 miles
Clouds Clear
Heat Index 87 °F
Dew Point 78 °F
Humidity 94%
Rainfall 0.00 in
Snow Depth Not available.
UV 0 out of 12
Pollen 3.70 out of 12
Air Quality Not available.
Flu Activity Not available.
METAR KHUM 040515Z AUTO 18003KT 7SM CLR 25/24 A3004 RMK AO2 T02520240

More Conditions Fewer Conditions

10-Day Weather Forecast

×

Almanac

Astronomy

Jul. 04, 2015 Rise Set
Actual Time
Civil Twilight
Nautical Twilight
Astronomical Twilight
Moon
Length of Visible Light
Length of Day
Tomorrow will be .
, % of the Moon is Illuminated

Today's Extremes

State Highs State Lows

Community

WunderPhotos

Upload Photos

1,834,922 photos uploaded!

WunderBlogs® & News

Nearby

Air Quality

  Air Quality AQ Index Pollutant
Not available.

Snow Depth

Station Depth Elevation

Earthquake Activity

City Distance Mag. Time & Date
Minimum magnitude displayed is 2.5.

Coastal Water Temperatures

Place Temperature

Stations

Nearby Weather Stations

Station Location Temp. Windchill Dew Point Humidity Wind Precip. Elev Updated Type